This is the latest recevied weather packets stored in our database for station/object OK3MS-5. If no packets are shown the sender has not sent any weather packets the latest 10 day(s).
| Time | Temp. | Humidity | Pressure | Rain* | Wind** | Luminosity | Snow |
|---|---|---|---|---|---|---|---|
| 1787569205 | 20.56° C | 47% | 1019.5 hPa | 0 mm | - | 604 W/m² | - |
| 1787568905 | 20.56° C | 51% | 1019.6 hPa | 0 mm | - | 648 W/m² | - |
| 1787568602 | 20.56° C | 49% | 1019.6 hPa | 0 mm | - | 724 W/m² | - |
| 1787568304 | 20° C | 49% | 1019.7 hPa | 0 mm | - | 643 W/m² | - |
| 1787568006 | 21.11° C | 49% | 1019.5 hPa | 0 mm | - | 717 W/m² | - |
| 1787567703 | 21.11° C | 49% | 1019.6 hPa | 0 mm | - | 700 W/m² | - |
| 1787567402 | 19.44° C | 52% | 1020 hPa | 0 mm | - | 685 W/m² | - |
| 1787567103 | 20° C | 51% | 1019.8 hPa | 0 mm | - | 709 W/m² | - |
| 1787566804 | 19.44° C | 52% | 1020 hPa | 0 mm | - | 693 W/m² | - |
| 1787566503 | 20° C | 51% | 1019.9 hPa | 0 mm | - | 672 W/m² | - |
| 1787566205 | 19.44° C | 52% | 1020.1 hPa | 0 mm | - | 676 W/m² | - |
| 1787565905 | 20° C | 50% | 1019.9 hPa | 0 mm | - | 671 W/m² | - |
| 1787565603 | 19.44° C | 52% | 1020.1 hPa | 0 mm | - | 668 W/m² | - |
| 1787565306 | 20° C | 51% | 1020 hPa | 0 mm | - | 663 W/m² | - |
| 1787565003 | 20.56° C | 50% | 1019.9 hPa | 0 mm | - | 659 W/m² | - |
| 1787564704 | 20.56° C | 52% | 1019.9 hPa | 0 mm | - | 613 W/m² | - |
| 1787564403 | 20° C | 50% | 1020.1 hPa | 0 mm | - | 666 W/m² | - |
| 1787564104 | 19.44° C | 53% | 1020.2 hPa | 0 mm | - | 668 W/m² | - |
| 1787563803 | 20° C | 52% | 1020.2 hPa | 0 mm | - | 640 W/m² | - |
| 1787563502 | 19.44° C | 53% | 1020.3 hPa | 0 mm | - | 651 W/m² | - |
| 1787563204 | 18.89° C | 55% | 1020.6 hPa | 0 mm | - | 620 W/m² | - |
| 1787562904 | 18.33° C | 54% | 1020.7 hPa | 0 mm | - | 570 W/m² | - |
| 1787562603 | 18.33° C | 56% | 1020.6 hPa | 0 mm | - | 583 W/m² | - |
| 1787562304 | 17.78° C | 55% | 1021 hPa | 0 mm | - | 550 W/m² | - |
| 1787562004 | 17.22° C | 58% | 1020.9 hPa | 0 mm | - | 570 W/m² | - |
* Rain latest hour (hover to see other rain measurements)
** Current wind speed in m/s (hover to see current wind gust speed)